createdAt,value
2018-08-22T00:00:20.615Z,19.70
2018-08-22T00:02:48.719Z,19.80
2018-08-22T00:05:16.300Z,19.80
2018-08-22T00:07:43.876Z,19.80
2018-08-22T00:10:11.644Z,19.80
2018-08-22T00:12:39.723Z,19.80
2018-08-22T00:15:07.420Z,19.80
2018-08-22T00:17:35.007Z,19.70
2018-08-22T00:20:02.625Z,19.60
2018-08-22T00:22:30.579Z,19.50
2018-08-22T00:24:58.163Z,19.60
2018-08-22T00:27:25.761Z,19.50
2018-08-22T00:29:53.780Z,19.50
2018-08-22T00:32:21.442Z,19.60
2018-08-22T00:34:49.503Z,19.60
2018-08-22T00:37:17.236Z,19.40
2018-08-22T00:39:45.364Z,19.40
2018-08-22T00:42:13.143Z,19.40
2018-08-22T00:44:56.489Z,19.60
2018-08-22T00:47:24.179Z,19.60
2018-08-22T00:49:52.396Z,19.60
2018-08-22T00:52:20.077Z,19.60
2018-08-22T00:54:47.749Z,19.40
2018-08-22T00:57:15.335Z,19.30
2018-08-22T00:59:45.495Z,19.30
2018-08-22T01:02:17.378Z,19.30
2018-08-22T01:04:45.329Z,19.30
2018-08-22T01:07:12.970Z,19.40
2018-08-22T01:09:40.924Z,19.60
2018-08-22T01:12:08.615Z,19.60
2018-08-22T01:14:37.520Z,19.70
2018-08-22T01:17:05.835Z,19.50
2018-08-22T01:19:36.011Z,19.40
2018-08-22T01:22:03.943Z,19.40
2018-08-22T01:24:31.649Z,19.40
2018-08-22T01:26:59.268Z,19.30
2018-08-22T01:29:27.363Z,19.40
2018-08-22T01:31:54.962Z,19.30
2018-08-22T01:34:22.602Z,19.30
2018-08-22T01:36:50.260Z,19.30
2018-08-22T01:39:17.852Z,19.30
2018-08-22T01:41:45.466Z,19.30
2018-08-22T01:44:14.527Z,19.30
2018-08-22T01:46:42.213Z,19.40
2018-08-22T01:49:09.903Z,19.40
2018-08-22T01:51:37.582Z,19.30
2018-08-22T01:54:08.084Z,19.40
2018-08-22T01:56:35.936Z,19.60
2018-08-22T01:59:04.194Z,19.60
2018-08-22T02:02:34.484Z,19.70
2018-08-22T02:05:02.137Z,19.70
2018-08-22T02:07:29.772Z,19.70
2018-08-22T02:09:58.063Z,19.50
2018-08-22T02:12:27.035Z,19.40
2018-08-22T02:14:54.765Z,19.30
2018-08-22T02:17:22.796Z,19.30
2018-08-22T02:19:50.552Z,19.30
2018-08-22T02:22:18.916Z,19.20
2018-08-22T02:24:50.642Z,19.10
2018-08-22T02:27:18.889Z,19.00
2018-08-22T02:29:46.672Z,18.80
2018-08-22T02:32:14.323Z,19.10
2018-08-22T02:34:41.941Z,19.20
2018-08-22T02:37:09.784Z,19.20
2018-08-22T02:39:37.736Z,19.30
2018-08-22T02:42:05.856Z,19.40
2018-08-22T02:44:33.652Z,19.40
2018-08-22T02:47:01.443Z,19.40
2018-08-22T02:49:29.255Z,19.20
2018-08-22T02:51:58.508Z,19.10
2018-08-22T02:54:26.638Z,19.20
2018-08-22T02:56:54.500Z,19.20
2018-08-22T02:59:24.267Z,19.20
2018-08-22T03:01:52.016Z,19.20
2018-08-22T03:04:19.849Z,19.20
2018-08-22T03:06:47.765Z,19.10
2018-08-22T03:09:15.873Z,19.10
2018-08-22T03:11:43.696Z,19.00
2018-08-22T03:14:11.431Z,19.00
2018-08-22T03:16:39.310Z,19.00
2018-08-22T03:19:07.529Z,19.00
2018-08-22T03:21:35.912Z,18.90
2018-08-22T03:24:03.648Z,18.90
2018-08-22T03:26:31.474Z,18.90
2018-08-22T03:28:59.643Z,18.90
2018-08-22T03:31:27.424Z,18.90
2018-08-22T03:33:55.227Z,19.00
2018-08-22T03:36:23.014Z,19.10
2018-08-22T03:39:07.182Z,19.10
2018-08-22T03:41:37.601Z,19.10
2018-08-22T03:44:11.287Z,19.10
2018-08-22T03:46:39.444Z,19.10
2018-08-22T03:49:07.311Z,19.10
2018-08-22T03:51:35.410Z,19.10
2018-08-22T03:54:03.248Z,19.20
2018-08-22T03:56:32.656Z,19.20
2018-08-22T03:59:00.412Z,19.00
2018-08-22T04:01:28.456Z,19.00
2018-08-22T04:03:56.276Z,19.00
2018-08-22T04:06:23.960Z,19.00
2018-08-22T04:08:52.141Z,18.90
2018-08-22T04:11:19.922Z,18.90
2018-08-22T04:13:47.778Z,18.80
2018-08-22T04:16:16.245Z,18.70
2018-08-22T04:18:44.028Z,18.70
2018-08-22T04:21:11.758Z,18.80
2018-08-22T04:23:40.310Z,18.80
2018-08-22T04:26:08.249Z,18.80
2018-08-22T04:28:35.993Z,18.90
2018-08-22T04:31:04.234Z,18.90
2018-08-22T04:33:31.923Z,18.90
2018-08-22T04:35:59.619Z,18.90
2018-08-22T04:38:28.185Z,18.90
2018-08-22T04:41:04.522Z,18.90
2018-08-22T04:43:32.537Z,18.80
2018-08-22T04:46:01.660Z,18.80
2018-08-22T04:48:29.637Z,18.70
2018-08-22T04:51:00.557Z,18.80
2018-08-22T04:53:30.711Z,18.80
2018-08-22T04:55:58.574Z,18.90
2018-08-22T04:58:26.341Z,18.90
2018-08-22T05:00:56.520Z,18.80
2018-08-22T05:03:24.210Z,18.90
2018-08-22T05:05:53.959Z,19.00
2018-08-22T05:08:22.976Z,19.00
2018-08-22T05:10:51.095Z,19.10
2018-08-22T05:13:26.847Z,19.00
2018-08-22T05:15:54.979Z,19.20
2018-08-22T05:18:22.664Z,19.20
2018-08-22T05:20:50.361Z,19.20
2018-08-22T05:23:20.113Z,19.30
2018-08-22T05:25:47.856Z,19.30
2018-08-22T05:28:16.658Z,19.40
2018-08-22T05:30:44.749Z,19.40
2018-08-22T05:33:16.465Z,19.40
2018-08-22T05:35:49.169Z,19.40
2018-08-22T05:38:17.461Z,19.40
2018-08-22T05:40:45.308Z,19.50
2018-08-22T05:43:15.138Z,19.50
2018-08-22T05:45:43.201Z,19.60
2018-08-22T05:48:11.008Z,19.70
2018-08-22T05:50:38.699Z,19.90
2018-08-22T05:53:06.996Z,19.90
2018-08-22T05:55:34.741Z,20.20
2018-08-22T05:58:03.594Z,20.30
2018-08-22T06:00:31.960Z,20.40
2018-08-22T06:02:59.738Z,20.50
2018-08-22T06:05:27.423Z,20.60
2018-08-22T06:07:56.537Z,20.80
2018-08-22T06:10:24.260Z,20.80
2018-08-22T06:13:40.104Z,20.80
2018-08-22T06:16:07.885Z,20.90
2018-08-22T06:18:49.409Z,21.00
2018-08-22T06:21:17.471Z,21.10
2018-08-22T06:23:45.367Z,21.10
2018-08-22T06:26:13.069Z,21.20
2018-08-22T06:28:41.242Z,21.30
2018-08-22T06:31:09.028Z,21.60
2018-08-22T06:33:39.966Z,21.90
2018-08-22T06:36:07.952Z,22.90
2018-08-22T06:38:35.634Z,24.70
2018-08-22T06:41:03.490Z,26.50
2018-08-22T06:43:36.352Z,28.10
2018-08-22T06:46:10.297Z,29.20
2018-08-22T06:48:38.479Z,29.70
2018-08-22T06:51:07.159Z,31.40
2018-08-22T06:53:34.849Z,32.10
2018-08-22T06:56:02.568Z,31.80
2018-08-22T06:58:30.638Z,30.70
2018-08-22T07:00:59.183Z,30.60
2018-08-22T07:03:26.975Z,30.60
2018-08-22T07:05:55.069Z,31.50
2018-08-22T07:08:35.838Z,31.90
2018-08-22T07:11:04.047Z,31.70
2018-08-22T07:13:31.751Z,32.30
2018-08-22T07:15:59.437Z,32.40
2018-08-22T07:18:27.717Z,32.60
2018-08-22T07:20:55.688Z,32.80
2018-08-22T07:23:23.436Z,33.30
2018-08-22T07:25:51.462Z,33.20
2018-08-22T07:28:34.521Z,33.80
2018-08-22T07:31:02.806Z,33.40
2018-08-22T07:33:30.891Z,32.50
2018-08-22T07:52:53.708Z,33.60
2018-08-22T07:55:23.250Z,33.40
2018-08-22T07:57:53.190Z,33.30
2018-08-22T08:00:21.983Z,32.90
2018-08-22T08:02:52.921Z,33.20
2018-08-22T08:05:28.465Z,33.40
2018-08-22T08:07:59.225Z,33.10
2018-08-22T08:10:36.525Z,33.20
2018-08-22T08:16:08.529Z,33.60
2018-08-22T08:18:39.074Z,33.90
2018-08-22T08:21:08.853Z,33.70
2018-08-22T08:23:37.606Z,34.80
2018-08-22T08:26:08.845Z,36.10
2018-08-22T08:28:39.662Z,37.80
2018-08-22T08:31:08.492Z,37.40
2018-08-22T08:33:37.285Z,34.70
2018-08-22T08:36:06.799Z,31.80
2018-08-22T08:38:35.508Z,31.60
2018-08-22T08:41:05.157Z,32.00
2018-08-22T08:43:34.342Z,31.70
2018-08-22T08:46:05.364Z,31.10
2018-08-22T08:48:33.835Z,31.40
2018-08-22T08:51:02.547Z,29.60
2018-08-22T08:53:31.231Z,31.60
2018-08-22T08:55:59.723Z,31.80
2018-08-22T08:58:29.824Z,32.60
2018-08-22T09:00:58.165Z,31.30
2018-08-22T09:03:27.560Z,30.10
2018-08-22T09:05:56.205Z,29.50
2018-08-22T09:08:24.574Z,30.00
2018-08-22T09:10:52.986Z,29.30
2018-08-22T09:13:22.085Z,29.50
2018-08-22T09:15:50.316Z,30.60
2018-08-22T09:18:43.307Z,30.20
2018-08-22T09:21:12.964Z,31.20
2018-08-22T09:23:41.130Z,32.30
2018-08-22T09:26:11.234Z,31.40
2018-08-22T09:28:49.162Z,32.20
2018-08-22T09:31:18.083Z,31.20
2018-08-22T09:33:47.055Z,31.20
2018-08-22T09:36:15.717Z,32.70
2018-08-22T09:38:46.795Z,34.30
2018-08-22T09:41:15.772Z,34.40
2018-08-22T09:43:44.901Z,34.60
2018-08-22T09:46:13.348Z,34.60
2018-08-22T09:48:47.524Z,34.10
2018-08-22T09:51:17.028Z,32.70
2018-08-22T09:53:45.997Z,32.00
2018-08-22T09:56:15.375Z,31.30
2018-08-22T09:58:44.226Z,31.70
2018-08-22T10:01:17.886Z,32.00
2018-08-22T10:03:53.137Z,32.30
2018-08-22T10:06:33.749Z,31.80
2018-08-22T10:09:03.470Z,31.00
2018-08-22T10:11:31.629Z,29.60
2018-08-22T10:14:00.405Z,29.10
2018-08-22T10:16:30.437Z,29.50
2018-08-22T10:19:02.028Z,29.90
2018-08-22T10:21:32.298Z,30.10
2018-08-22T10:24:02.914Z,31.00
2018-08-22T10:26:31.323Z,31.10
2018-08-22T10:29:01.307Z,31.30
2018-08-22T10:31:29.886Z,31.70
2018-08-22T10:33:58.075Z,31.70
2018-08-22T10:36:34.422Z,32.00
2018-08-22T10:39:07.665Z,32.30
2018-08-22T10:47:13.886Z,32.30
2018-08-22T10:49:42.343Z,33.20
2018-08-22T10:52:12.126Z,33.30
2018-08-22T10:54:42.423Z,33.60
2018-08-22T10:57:15.073Z,33.30
2018-08-22T10:59:43.782Z,33.00
2018-08-22T11:02:14.181Z,32.90
2018-08-22T11:04:42.403Z,32.80
2018-08-22T11:07:11.036Z,32.00
2018-08-22T11:09:39.888Z,31.30
2018-08-22T11:12:08.122Z,30.90
2018-08-22T11:14:37.130Z,30.50
2018-08-22T11:17:06.149Z,31.20
2018-08-22T11:19:34.682Z,31.30
2018-08-22T11:22:08.421Z,31.50
2018-08-22T11:24:42.639Z,31.00
2018-08-22T11:27:16.592Z,30.90
2018-08-22T11:29:51.810Z,31.10
2018-08-22T11:32:34.127Z,30.70
2018-08-22T11:37:43.663Z,31.60
2018-08-22T11:40:13.698Z,31.30
2018-08-22T11:42:43.342Z,31.40
2018-08-22T11:45:11.978Z,31.20
2018-08-22T11:47:41.542Z,31.60
2018-08-22T11:50:11.552Z,30.70
2018-08-22T11:52:40.381Z,31.10
2018-08-22T11:55:09.101Z,31.40
2018-08-22T11:57:37.616Z,31.00
2018-08-22T12:00:06.797Z,32.00
2018-08-22T12:02:36.876Z,32.30
2018-08-22T12:05:06.439Z,31.60
2018-08-22T12:07:34.717Z,31.60
2018-08-22T12:10:05.877Z,30.70
2018-08-22T12:12:36.488Z,31.10
2018-08-22T12:15:04.902Z,30.90
2018-08-22T12:17:33.804Z,31.30
2018-08-22T12:20:03.357Z,31.20
2018-08-22T12:22:44.520Z,31.20
2018-08-22T12:25:16.816Z,31.20
2018-08-22T12:27:46.213Z,31.00
2018-08-22T12:30:16.284Z,30.90
2018-08-22T12:32:48.469Z,30.80
2018-08-22T12:35:23.428Z,30.80
2018-08-22T12:37:51.876Z,30.90
2018-08-22T12:40:37.002Z,31.20
2018-08-22T12:43:08.638Z,30.60
2018-08-22T12:45:40.373Z,30.30
2018-08-22T12:48:09.141Z,30.20
2018-08-22T12:50:42.995Z,29.90
2018-08-22T12:53:11.339Z,30.40
2018-08-22T12:55:40.258Z,30.60
2018-08-22T12:58:09.171Z,30.40
2018-08-22T13:00:38.192Z,30.30
2018-08-22T13:03:32.354Z,30.30
2018-08-22T13:06:01.692Z,29.90
2018-08-22T13:08:30.505Z,29.90
2018-08-22T13:10:59.101Z,30.10
2018-08-22T13:13:27.616Z,30.40
2018-08-22T13:15:57.274Z,30.40
2018-08-22T13:18:29.493Z,30.30
2018-08-22T13:20:58.180Z,30.20
2018-08-22T13:23:26.741Z,30.20
2018-08-22T13:25:56.130Z,30.20
2018-08-22T13:28:25.621Z,30.30
2018-08-22T13:30:55.046Z,30.40
2018-08-22T13:33:24.685Z,30.40
2018-08-22T13:35:53.859Z,30.80
2018-08-22T13:38:22.937Z,30.80
2018-08-22T13:40:53.483Z,30.50
2018-08-22T13:43:22.991Z,30.40
2018-08-22T13:45:52.012Z,30.60
2018-08-22T13:48:21.325Z,30.50
2018-08-22T13:50:50.937Z,30.60
2018-08-22T13:53:21.802Z,30.60
2018-08-22T13:55:50.334Z,30.90
2018-08-22T13:58:18.966Z,30.80
2018-08-22T14:00:50.007Z,30.60
2018-08-22T14:03:19.073Z,30.70
2018-08-22T14:05:47.905Z,30.70
2018-08-22T14:08:17.029Z,30.90
2018-08-22T14:10:45.535Z,30.70
2018-08-22T14:13:14.997Z,30.40
2018-08-22T14:15:44.556Z,30.40
2018-08-22T14:18:14.308Z,30.60
2018-08-22T14:23:50.640Z,30.30
2018-08-22T14:26:21.260Z,30.40
2018-08-22T14:28:53.764Z,30.30
2018-08-22T14:31:22.461Z,30.30
2018-08-22T14:33:57.119Z,30.20
2018-08-22T14:36:27.891Z,30.40
2018-08-22T14:44:16.925Z,30.80
2018-08-22T14:46:46.051Z,30.70
2018-08-22T14:49:15.649Z,31.00
2018-08-22T14:51:54.662Z,30.90
2018-08-22T14:54:24.699Z,31.10
2018-08-22T14:57:06.317Z,31.30
2018-08-22T15:02:55.289Z,31.20
2018-08-22T15:05:26.462Z,30.70
2018-08-22T15:07:55.323Z,30.80
2018-08-22T15:10:23.814Z,30.90
2018-08-22T15:13:05.073Z,30.70
2018-08-22T15:15:53.451Z,31.00
2018-08-22T15:18:26.213Z,31.10
2018-08-22T15:20:55.183Z,31.10
2018-08-22T15:23:24.691Z,31.10
2018-08-22T15:25:53.462Z,30.90
2018-08-22T15:28:22.764Z,30.40
2018-08-22T15:30:51.185Z,30.50
2018-08-22T15:33:20.191Z,30.20
2018-08-22T15:35:49.781Z,30.00
2018-08-22T15:38:20.853Z,30.00
2018-08-22T15:40:49.986Z,30.00
2018-08-22T15:43:20.037Z,30.00
2018-08-22T15:46:00.312Z,30.10
2018-08-22T15:48:29.353Z,29.90
2018-08-22T15:51:17.770Z,29.80
2018-08-22T15:53:51.930Z,29.90
2018-08-22T15:56:20.377Z,29.80
2018-08-22T15:58:49.133Z,29.70
2018-08-22T16:01:23.024Z,29.70
2018-08-22T16:04:17.218Z,29.60
2018-08-22T16:07:04.125Z,29.60
2018-08-22T16:09:33.282Z,29.50
2018-08-22T16:12:04.621Z,29.50
2018-08-22T16:17:25.937Z,29.40
2018-08-22T16:19:59.472Z,29.40
2018-08-22T16:22:27.946Z,29.40
2018-08-22T16:24:58.459Z,29.30
2018-08-22T16:27:45.078Z,29.20
2018-08-22T16:30:15.788Z,29.20
2018-08-22T16:35:51.777Z,29.20
2018-08-22T16:38:24.920Z,29.50
2018-08-22T16:40:54.034Z,29.50
2018-08-22T16:43:38.320Z,29.60
2018-08-22T16:46:14.241Z,29.50
2018-08-22T16:48:44.285Z,29.40
2018-08-22T16:51:13.174Z,29.30
2018-08-22T16:53:41.634Z,29.40
2018-08-22T16:56:14.374Z,29.30
2018-08-22T16:58:43.629Z,29.30
2018-08-22T17:01:15.442Z,29.10
2018-08-22T17:03:44.266Z,29.00
2018-08-22T17:06:17.014Z,29.00
2018-08-22T17:08:49.754Z,28.90
2018-08-22T17:11:18.302Z,28.80
2018-08-22T17:13:47.922Z,28.80
2018-08-22T17:16:23.855Z,28.70
2018-08-22T17:18:52.737Z,28.60
2018-08-22T17:21:25.607Z,28.40
2018-08-22T17:23:54.464Z,28.20
2018-08-22T17:26:23.902Z,28.30
2018-08-22T17:28:54.733Z,28.20
2018-08-22T17:31:28.247Z,28.00
2018-08-22T17:34:00.167Z,27.80
2018-08-22T17:36:29.556Z,27.70
2018-08-22T17:38:59.414Z,27.60
2018-08-22T17:41:29.967Z,27.50
2018-08-22T17:44:19.683Z,27.40
2018-08-22T17:46:50.632Z,27.30
2018-08-22T17:49:19.881Z,27.00
2018-08-22T17:52:12.322Z,27.00
2018-08-22T17:54:41.362Z,26.90
2018-08-22T17:57:17.661Z,26.80
2018-08-22T17:59:46.505Z,26.50
2018-08-22T18:02:17.837Z,26.30
2018-08-22T18:04:52.395Z,26.10
2018-08-22T18:07:25.827Z,26.30
2018-08-22T18:13:09.491Z,26.30
2018-08-22T18:15:39.291Z,26.30
2018-08-22T18:18:11.854Z,26.20
2018-08-22T18:20:47.785Z,26.20
2018-08-22T18:23:17.733Z,26.10
2018-08-22T18:25:56.485Z,25.80
2018-08-22T18:28:25.180Z,25.70
2018-08-22T18:30:55.474Z,25.60
2018-08-22T18:33:26.489Z,25.60
2018-08-22T18:36:05.147Z,25.50
2018-08-22T18:38:33.930Z,25.50
2018-08-22T18:41:06.300Z,25.50
2018-08-22T18:43:38.127Z,25.20
2018-08-22T18:46:11.415Z,25.20
2018-08-22T18:48:41.104Z,25.20
2018-08-22T18:51:12.400Z,25.00
2018-08-22T18:53:45.226Z,25.10
2018-08-22T18:56:18.067Z,25.10
2018-08-22T18:58:46.674Z,25.20
2018-08-22T19:01:15.169Z,25.20
2018-08-22T19:03:44.972Z,25.20
2018-08-22T19:06:21.891Z,25.00
2018-08-22T19:09:00.167Z,24.70
2018-08-22T19:11:29.011Z,24.70
2018-08-22T19:13:57.879Z,24.70
2018-08-22T19:16:26.646Z,24.60
2018-08-22T19:18:56.006Z,24.70
2018-08-22T19:21:25.401Z,24.70
2018-08-22T19:24:05.535Z,24.70
2018-08-22T19:26:35.362Z,24.70
2018-08-22T19:29:05.153Z,24.70
2018-08-22T19:31:33.569Z,24.70
2018-08-22T19:34:03.306Z,24.50
2018-08-22T19:36:32.598Z,24.50
2018-08-22T19:39:01.782Z,24.40
2018-08-22T19:41:33.255Z,24.30
2018-08-22T19:44:02.119Z,24.20
2018-08-22T19:46:32.972Z,24.20
2018-08-22T19:49:03.164Z,24.10
2018-08-22T19:51:32.454Z,24.10
2018-08-22T19:54:08.625Z,24.20
2018-08-22T19:56:38.845Z,24.00
2018-08-22T19:59:09.089Z,24.00
2018-08-22T20:01:38.745Z,24.10
2018-08-22T20:04:08.772Z,24.20
2018-08-22T20:06:37.600Z,24.20
2018-08-22T20:09:06.288Z,24.10
2018-08-22T20:11:35.481Z,24.00
2018-08-22T20:14:07.295Z,23.70
2018-08-22T20:16:35.579Z,23.60
2018-08-22T20:19:05.388Z,23.60
2018-08-22T20:21:37.098Z,23.70
2018-08-22T20:24:07.393Z,23.60
2018-08-22T20:26:36.672Z,23.60
2018-08-22T20:29:05.963Z,23.50
2018-08-22T20:31:35.444Z,23.50
2018-08-22T20:34:14.006Z,23.50
2018-08-22T20:36:43.947Z,23.30
2018-08-22T20:39:13.117Z,23.40
2018-08-22T20:41:42.203Z,23.40
2018-08-22T20:44:20.676Z,23.30
2018-08-22T20:46:49.808Z,23.30
2018-08-22T20:49:19.429Z,23.30
2018-08-22T20:51:47.962Z,23.20
2018-08-22T20:54:20.093Z,23.10
2018-08-22T20:56:53.593Z,23.10
2018-08-22T20:59:22.046Z,23.00
2018-08-22T21:01:55.259Z,23.10
2018-08-22T21:04:23.661Z,23.20
2018-08-22T21:06:51.904Z,23.10
2018-08-22T21:09:20.329Z,23.10
2018-08-22T21:11:48.558Z,23.10
2018-08-22T21:14:17.052Z,23.10
2018-08-22T21:16:45.899Z,23.10
2018-08-22T21:19:14.106Z,23.00
2018-08-22T21:21:42.536Z,23.10
2018-08-22T21:24:11.079Z,23.00
2018-08-22T21:26:41.131Z,23.00
2018-08-22T21:29:09.374Z,23.10
2018-08-22T21:31:37.803Z,23.00
2018-08-22T21:34:12.614Z,22.90
2018-08-22T21:36:42.052Z,22.90
2018-08-22T21:39:16.075Z,22.90
2018-08-22T21:41:45.811Z,22.90
2018-08-22T21:44:20.367Z,22.90
2018-08-22T21:46:55.398Z,22.80
2018-08-22T21:49:23.947Z,22.80
2018-08-22T21:51:52.113Z,22.80
2018-08-22T21:54:21.011Z,22.80
2018-08-22T21:56:49.583Z,22.70
2018-08-22T21:59:18.171Z,22.80
2018-08-22T22:01:51.966Z,22.70
2018-08-22T22:04:25.449Z,22.80
2018-08-22T22:06:54.065Z,22.90
2018-08-22T22:09:22.258Z,22.90
2018-08-22T22:11:55.196Z,22.80
2018-08-22T22:14:27.527Z,22.80
2018-08-22T22:16:57.573Z,22.80
2018-08-22T22:19:26.687Z,22.70
2018-08-22T22:21:54.874Z,22.70
2018-08-22T22:24:23.175Z,22.80
2018-08-22T22:26:51.950Z,22.60
2018-08-22T22:29:20.329Z,22.60
2018-08-22T22:31:48.529Z,22.60
2018-08-22T22:34:17.066Z,22.70
2018-08-22T22:36:45.230Z,22.80
2018-08-22T22:39:22.901Z,22.90
2018-08-22T22:41:53.848Z,22.80
2018-08-22T22:44:21.991Z,22.80
2018-08-22T22:46:50.114Z,23.00
2018-08-22T22:49:18.523Z,23.10
2018-08-22T22:51:46.875Z,23.10
2018-08-22T22:54:15.415Z,23.00
2018-08-22T22:56:44.124Z,23.00
2018-08-22T22:59:12.854Z,22.80
2018-08-22T23:01:41.566Z,22.80
2018-08-22T23:04:10.511Z,22.70
2018-08-22T23:06:39.577Z,22.60
2018-08-22T23:09:08.433Z,22.60
2018-08-22T23:11:37.391Z,22.60
2018-08-22T23:14:06.110Z,22.50
2018-08-22T23:16:36.466Z,22.60
2018-08-22T23:19:05.733Z,22.70
2018-08-22T23:21:34.130Z,22.90
2018-08-22T23:24:06.962Z,22.90
2018-08-22T23:26:35.990Z,22.90
2018-08-22T23:29:04.431Z,23.10
2018-08-22T23:31:32.810Z,23.00
2018-08-22T23:34:02.008Z,23.00
2018-08-22T23:36:30.187Z,23.00
2018-08-22T23:38:58.344Z,23.10
2018-08-22T23:41:26.908Z,23.00
2018-08-22T23:43:55.476Z,22.90
2018-08-22T23:46:23.816Z,22.90
2018-08-22T23:48:54.855Z,23.00
2018-08-22T23:51:23.311Z,22.80
2018-08-22T23:53:51.668Z,22.80
2018-08-22T23:56:22.658Z,22.70
2018-08-22T23:58:51.436Z,22.60
